Bolton Field


Codes: KTZR/
Name: Bolton Field
City: Columbus
Country: United States
Elevation: 905 ft.

Photos at Bolton Field


   Photos courtesy of SpottingLog. You can add your own sightings and photos by signing up for a free trial today.



No photos found.

Weather at Bolton Field


Time (UTC)DescriptionTempratureWindCloud coverageVisibilityPressureHumidity
16-Jun-2024 09:00Clear Sky14°C4 mph, E0%10000m1020hPa80%
16-Jun-2024 12:00Scattered Clouds15°C7 mph, SE30%10000m1020hPa75%
16-Jun-2024 15:00Scattered Clouds21°C7 mph, SE40%10000m1019hPa56%
16-Jun-2024 18:00Broken Clouds28°C7 mph, S54%10000m1017hPa36%
16-Jun-2024 21:00Clear Sky29°C7 mph, S10%10000m1016hPa41%
17-Jun-2024 00:00Clear Sky26°C4 mph, S9%10000m1016hPa59%
17-Jun-2024 03:00Clear Sky22°C4 mph, SW1%10000m1016hPa73%
17-Jun-2024 06:00Clear Sky21°C4 mph, S3%10000m1017hPa84%
17-Jun-2024 09:00Broken Clouds21°C4 mph, SW80%10000m1017hPa91%
17-Jun-2024 12:00Broken Clouds23°C4 mph, SW58%10000m1019hPa82%
17-Jun-2024 15:00Clear Sky28°C7 mph, S1%10000m1019hPa61%
17-Jun-2024 18:00Clear Sky32°C9 mph, S1%10000m1017hPa52%
17-Jun-2024 21:00Overcast Clouds32°C9 mph, SW92%10000m1017hPa48%
18-Jun-2024 00:00Overcast Clouds29°C4 mph, S88%10000m1017hPa64%
18-Jun-2024 03:00Light Rain25°C4 mph, SW34%10000m1019hPa77%
18-Jun-2024 06:00Broken Clouds24°C4 mph, SW67%10000m1019hPa80%
18-Jun-2024 09:00Light Rain23°C4 mph, S100%10000m1020hPa89%
18-Jun-2024 12:00Light Rain23°C4 mph, SW100%10000m1021hPa79%
18-Jun-2024 15:00Overcast Clouds28°C7 mph, S100%10000m1021hPa61%
18-Jun-2024 18:00Overcast Clouds31°C7 mph, S100%10000m1020hPa56%
18-Jun-2024 21:00Overcast Clouds32°C7 mph, S97%10000m1019hPa49%
19-Jun-2024 00:00Light Rain29°C4 mph, W96%10000m1020hPa66%
19-Jun-2024 03:00Light Rain26°C4 mph, N100%10000m1021hPa74%
19-Jun-2024 06:00Light Rain24°C4 mph, NE100%10000m1020hPa89%
19-Jun-2024 09:00Overcast Clouds23°C4 mph, S91%10000m1022hPa91%
19-Jun-2024 12:00Light Rain24°C4 mph, S95%10000m1024hPa88%
19-Jun-2024 15:00Light Rain30°C4 mph, S71%10000m1024hPa64%
19-Jun-2024 18:00Light Rain31°C9 mph, S75%10000m1024hPa52%
19-Jun-2024 21:00Light Rain31°C4 mph, S100%10000m1023hPa48%
20-Jun-2024 00:00Overcast Clouds29°C0 mph, W99%10000m1023hPa54%
20-Jun-2024 03:00Overcast Clouds26°C4 mph, N98%10000m1024hPa60%
20-Jun-2024 06:00Overcast Clouds24°C4 mph, E99%10000m1024hPa71%
20-Jun-2024 09:00Overcast Clouds22°C2 mph, E88%10000m1024hPa78%
20-Jun-2024 12:00Broken Clouds24°C2 mph, S67%10000m1025hPa68%
20-Jun-2024 15:00Clear Sky29°C7 mph, S10%10000m1025hPa49%
20-Jun-2024 18:00Clear Sky32°C4 mph, S8%10000m1024hPa42%
20-Jun-2024 21:00Broken Clouds33°C4 mph, S56%10000m1023hPa39%
21-Jun-2024 00:00Broken Clouds31°C2 mph, SE52%10000m1022hPa52%
21-Jun-2024 03:00Scattered Clouds26°C2 mph, E47%10000m1023hPa64%
21-Jun-2024 06:00Broken Clouds25°C2 mph, E73%10000m1023hPa75%